Time;durP1;ratioP1;P1;durP2;ratioP2;P2;SDS_P1;SDS_P2;PMS_P1;PMS_P2;Temp;Humidity;BMP_temperature;BMP_pressure;BME280_temperature;BME280_humidity;BME280_pressure;Samples;Min_cycle;Max_cycle;Signal;HPM_P1;HPM_P2
2021/10/30 00:01:29;;;;;;;;;;;18.90;41.00;;;;;;8234572;28;20363;-49
2021/10/30 00:05:30;;;;;;;;;;;18.90;41.00;;;;;;8234058;28;19976;-49
2021/10/30 00:09:30;;;;;;;;;;;18.80;41.00;;;;;;8234421;28;19989;-49
2021/10/30 00:13:31;;;;;;;;;;;18.80;41.00;;;;;;8233966;28;19913;-49
2021/10/30 00:17:31;;;;;;;;;;;18.80;41.00;;;;;;8233598;28;19922;-50
2021/10/30 00:21:31;;;;;;;;;;;18.80;41.00;;;;;;8234149;28;20022;-49
2021/10/30 00:25:32;;;;;;;;;;;18.80;41.00;;;;;;8234135;28;19917;-49
2021/10/30 00:29:32;;;;;;;;;;;18.80;40.90;;;;;;8233349;28;19918;-50
2021/10/30 00:33:33;;;;;;;;;;;18.80;41.00;;;;;;8233494;28;19914;-51
2021/10/30 00:37:33;;;;;;;;;;;18.80;40.90;;;;;;8233408;28;19948;-48
2021/10/30 00:41:34;;;;;;;;;;;18.80;41.00;;;;;;8233100;28;19914;-49
2021/10/30 00:45:34;;;;;;;;;;;18.80;41.50;;;;;;8233679;28;20020;-49
2021/10/30 00:49:35;;;;;;;;;;;18.80;41.00;;;;;;8233352;28;19914;-49
2021/10/30 00:53:35;;;;;;;;;;;18.70;40.90;;;;;;8233055;28;19921;-49
2021/10/30 00:57:37;;;;;;;;;;;18.80;41.00;;;;;;8239788;28;20012;-49
2021/10/30 01:01:38;;;;;;;;;;;18.70;41.00;;;;;;8239926;28;19914;-52
2021/10/30 01:05:39;;;;;;;;;;;18.70;41.00;;;;;;8239507;28;20355;-50
2021/10/30 01:09:40;;;;;;;;;;;18.70;40.90;;;;;;8238737;28;19914;-52
2021/10/30 01:13:41;;;;;;;;;;;18.70;41.00;;;;;;8239290;28;19920;-51
2021/10/30 01:17:41;;;;;;;;;;;18.70;41.00;;;;;;8238860;28;19957;-49
2021/10/30 01:21:42;;;;;;;;;;;18.70;41.00;;;;;;8239776;28;19933;-49
2021/10/30 01:25:44;;;;;;;;;;;18.70;41.00;;;;;;8239303;28;19914;-49
2021/10/30 01:29:47;;;;;;;;;;;18.70;41.00;;;;;;8238801;28;19914;-48
2021/10/30 01:33:48;;;;;;;;;;;18.60;40.90;;;;;;8239011;28;19973;-49
2021/10/30 01:37:49;;;;;;;;;;;18.60;40.90;;;;;;8238751;28;20379;-48
2021/10/30 01:41:49;;;;;;;;;;;18.60;40.90;;;;;;8238189;28;19968;-49
2021/10/30 01:45:50;;;;;;;;;;;18.60;40.90;;;;;;8237559;28;19960;-49
2021/10/30 01:49:50;;;;;;;;;;;18.60;40.90;;;;;;8238556;28;19954;-47
2021/10/30 01:53:51;;;;;;;;;;;18.60;40.90;;;;;;8238132;28;19924;-49
2021/10/30 01:57:51;;;;;;;;;;;18.60;40.90;;;;;;8238281;28;19918;-48
2021/10/30 02:01:52;;;;;;;;;;;18.60;40.90;;;;;;8237960;28;20387;-48
2021/10/30 02:05:53;;;;;;;;;;;18.60;40.90;;;;;;8236877;28;20363;-48
2021/10/30 02:09:53;;;;;;;;;;;18.50;40.80;;;;;;8237712;28;20001;-49
2021/10/30 02:13:54;;;;;;;;;;;18.50;40.80;;;;;;8237390;28;20001;-48
2021/10/30 02:17:54;;;;;;;;;;;18.50;40.90;;;;;;8236986;28;20438;-49
2021/10/30 02:21:55;;;;;;;;;;;18.50;40.80;;;;;;8237734;28;20382;-49
2021/10/30 02:25:56;;;;;;;;;;;18.50;40.90;;;;;;8237660;28;19914;-49
2021/10/30 02:29:56;;;;;;;;;;;18.50;40.80;;;;;;8236695;28;19936;-48
2021/10/30 02:33:56;;;;;;;;;;;18.50;40.80;;;;;;8237248;28;20315;-49
2021/10/30 02:37:57;;;;;;;;;;;18.50;40.80;;;;;;8236937;28;19989;-49
2021/10/30 02:41:57;;;;;;;;;;;18.40;40.80;;;;;;8236373;28;19914;-49
2021/10/30 02:45:58;;;;;;;;;;;18.40;40.80;;;;;;8237383;28;19918;-50
2021/10/30 02:49:58;;;;;;;;;;;18.40;40.80;;;;;;8236654;28;19996;-48
2021/10/30 02:53:59;;;;;;;;;;;18.40;40.80;;;;;;8236192;28;19921;-48
2021/10/30 02:57:59;;;;;;;;;;;18.40;40.80;;;;;;8236468;28;19964;-48
2021/10/30 03:02:00;;;;;;;;;;;18.40;40.80;;;;;;8236464;28;19921;-49
2021/10/30 03:06:00;;;;;;;;;;;18.40;40.80;;;;;;8235779;28;19914;-48
2021/10/30 03:10:01;;;;;;;;;;;18.40;40.70;;;;;;8236171;28;20252;-50
2021/10/30 03:14:02;;;;;;;;;;;18.40;40.80;;;;;;8235804;28;20363;-48
2021/10/30 03:18:02;;;;;;;;;;;18.40;40.80;;;;;;8234262;28;20375;-49
2021/10/30 03:22:03;;;;;;;;;;;18.30;40.70;;;;;;8235750;28;19910;-47
2021/10/30 03:26:03;;;;;;;;;;;18.30;40.80;;;;;;8235655;28;19918;-49
2021/10/30 03:30:05;;;;;;;;;;;18.30;40.80;;;;;;8234803;28;19969;-48
2021/10/30 03:34:05;;;;;;;;;;;18.30;40.80;;;;;;8235123;28;20394;-49
2021/10/30 03:38:06;;;;;;;;;;;18.30;40.80;;;;;;8235211;28;19926;-49
2021/10/30 03:42:06;;;;;;;;;;;18.30;40.80;;;;;;8235110;28;19914;-48
2021/10/30 03:46:07;;;;;;;;;;;18.30;40.80;;;;;;8235049;28;19924;-49
2021/10/30 03:50:08;;;;;;;;;;;18.30;40.80;;;;;;8234698;28;19914;-49
2021/10/30 03:54:08;;;;;;;;;;;18.30;40.80;;;;;;8234345;28;19924;-48
2021/10/30 03:58:09;;;;;;;;;;;18.30;40.80;;;;;;8234356;28;19933;-49
2021/10/30 04:02:09;;;;;;;;;;;18.30;40.80;;;;;;8233884;28;20279;-51
2021/10/30 04:06:10;;;;;;;;;;;18.30;40.70;;;;;;8234041;28;19914;-48
2021/10/30 04:10:10;;;;;;;;;;;18.30;40.70;;;;;;8234163;28;19976;-48
2021/10/30 04:14:10;;;;;;;;;;;18.30;40.70;;;;;;8233613;28;19925;-47
2021/10/30 04:18:11;;;;;;;;;;;18.30;40.70;;;;;;8234077;28;19918;-49
2021/10/30 04:22:11;;;;;;;;;;;18.30;40.80;;;;;;8234149;28;19914;-50
2021/10/30 04:26:12;;;;;;;;;;;18.30;40.70;;;;;;8233452;28;20001;-48
2021/10/30 04:30:12;;;;;;;;;;;18.30;40.70;;;;;;8233658;28;19921;-47
2021/10/30 04:34:19;;;;;;;;;;;18.30;40.70;;;;;;8233567;28;19994;-48
2021/10/30 04:38:19;;;;;;;;;;;18.20;40.70;;;;;;8233167;28;20446;-48
2021/10/30 04:42:20;;;;;;;;;;;18.20;40.60;;;;;;8233751;28;19914;-49
2021/10/30 04:46:21;;;;;;;;;;;18.20;40.60;;;;;;8233582;28;20387;-49
2021/10/30 04:50:22;;;;;;;;;;;18.20;40.60;;;;;;8232863;28;19953;-48
2021/10/30 04:54:22;;;;;;;;;;;18.20;40.70;;;;;;8233444;28;19925;-48
2021/10/30 04:58:23;;;;;;;;;;;18.20;40.60;;;;;;8233135;28;20286;-49
2021/10/30 05:02:23;;;;;;;;;;;18.20;40.70;;;;;;8233022;28;20367;-49
2021/10/30 05:06:23;;;;;;;;;;;18.20;40.60;;;;;;8233162;28;19937;-49
2021/10/30 05:10:24;;;;;;;;;;;18.20;40.60;;;;;;8233028;28;19914;-48
2021/10/30 05:14:25;;;;;;;;;;;18.20;40.60;;;;;;8232610;28;19965;-48
2021/10/30 05:18:25;;;;;;;;;;;18.20;40.60;;;;;;8232894;28;19922;-49
2021/10/30 05:22:26;;;;;;;;;;;18.20;40.60;;;;;;8233024;28;19918;-48
2021/10/30 05:26:26;;;;;;;;;;;18.20;40.70;;;;;;8232538;28;19969;-49
2021/10/30 05:30:27;;;;;;;;;;;18.20;40.70;;;;;;8233421;28;20289;-47
2021/10/30 05:34:27;;;;;;;;;;;18.20;40.70;;;;;;8232645;28;19910;-48
2021/10/30 05:38:27;;;;;;;;;;;18.20;40.70;;;;;;8232020;28;19929;-48
2021/10/30 05:42:29;;;;;;;;;;;18.10;40.60;;;;;;8236844;28;19916;-48
2021/10/30 05:46:30;;;;;;;;;;;18.20;40.70;;;;;;8238590;28;20363;-49
2021/10/30 05:50:31;;;;;;;;;;;18.10;40.70;;;;;;8237818;28;20013;-48
2021/10/30 05:54:32;;;;;;;;;;;18.10;40.70;;;;;;8238544;28;20295;-48
2021/10/30 05:58:32;;;;;;;;;;;18.10;40.70;;;;;;8238162;28;19964;-49
2021/10/30 06:02:33;;;;;;;;;;;18.10;40.70;;;;;;8237967;28;20371;-48
2021/10/30 06:06:34;;;;;;;;;;;18.10;40.70;;;;;;8237893;28;19921;-47
2021/10/30 06:10:35;;;;;;;;;;;18.10;40.70;;;;;;8237782;28;19914;-48
2021/10/30 06:14:35;;;;;;;;;;;18.10;40.60;;;;;;8237197;28;19965;-47
2021/10/30 06:18:36;;;;;;;;;;;18.10;40.70;;;;;;8237665;28;19918;-48
2021/10/30 06:22:42;;;;;;;;;;;18.10;40.70;;;;;;8237883;28;19910;-49
2021/10/30 06:26:42;;;;;;;;;;;18.00;40.70;;;;;;8237031;28;19914;-48
2021/10/30 06:30:43;;;;;;;;;;;18.10;40.70;;;;;;8237234;28;19914;-48
2021/10/30 06:34:43;;;;;;;;;;;18.10;40.70;;;;;;8237140;28;19961;-48
2021/10/30 06:38:44;;;;;;;;;;;18.10;40.60;;;;;;8236342;28;20001;-48
2021/10/30 06:42:44;;;;;;;;;;;18.10;40.60;;;;;;8237151;28;19910;-49
2021/10/30 06:46:46;;;;;;;;;;;18.10;40.60;;;;;;8236767;28;20397;-48
2021/10/30 06:50:47;;;;;;;;;;;18.00;40.50;;;;;;8236177;28;19960;-48
2021/10/30 06:54:47;;;;;;;;;;;18.00;40.50;;;;;;8236644;28;19922;-49
2021/10/30 06:58:47;;;;;;;;;;;18.10;40.50;;;;;;8236406;28;20318;-49
2021/10/30 07:02:51;;;;;;;;;;;18.00;40.50;;;;;;8235940;28;19910;-50
2021/10/30 07:06:52;;;;;;;;;;;18.00;40.50;;;;;;8235041;28;19914;-48
2021/10/30 07:10:52;;;;;;;;;;;18.00;40.50;;;;;;8235950;28;19918;-49
2021/10/30 07:14:53;;;;;;;;;;;18.00;40.50;;;;;;8235304;28;20320;-48
2021/10/30 07:18:54;;;;;;;;;;;18.00;40.50;;;;;;8235904;28;19917;-49
2021/10/30 07:22:54;;;;;;;;;;;18.00;40.60;;;;;;8235686;28;19956;-48
2021/10/30 07:26:54;;;;;;;;;;;17.90;40.50;;;;;;8235029;28;19996;-50
2021/10/30 07:30:55;;;;;;;;;;;18.00;40.40;;;;;;8235546;28;19914;-49
2021/10/30 07:34:55;;;;;;;;;;;18.00;40.50;;;;;;8235181;28;19961;-48
2021/10/30 07:38:56;;;;;;;;;;;18.00;40.50;;;;;;8234526;28;19925;-50
2021/10/30 07:42:57;;;;;;;;;;;17.90;40.40;;;;;;8235181;28;19956;-48
2021/10/30 07:46:58;;;;;;;;;;;18.00;40.50;;;;;;8234852;28;20264;-49
2021/10/30 07:50:58;;;;;;;;;;;17.90;41.00;;;;;;8234377;28;19914;-53
2021/10/30 07:54:59;;;;;;;;;;;17.90;40.40;;;;;;8234708;28;19926;-48
2021/10/30 07:58:59;;;;;;;;;;;17.90;40.50;;;;;;8234618;28;19976;-48
2021/10/30 08:02:59;;;;;;;;;;;17.90;40.50;;;;;;8233364;28;19921;-48
2021/10/30 08:07:02;;;;;;;;;;;17.90;40.50;;;;;;8234091;28;19922;-48
2021/10/30 08:11:02;;;;;;;;;;;17.90;40.50;;;;;;8234176;28;19917;-49
2021/10/30 08:15:04;;;;;;;;;;;17.90;40.50;;;;;;8233675;28;19914;-49
2021/10/30 08:19:05;;;;;;;;;;;17.90;41.00;;;;;;8233855;28;20000;-48
2021/10/30 08:23:06;;;;;;;;;;;18.00;40.50;;;;;;8233892;28;19921;-49
2021/10/30 08:27:06;;;;;;;;;;;17.90;40.40;;;;;;8233311;28;19918;-49
2021/10/30 08:31:07;;;;;;;;;;;17.90;40.40;;;;;;8233686;28;19921;-49
2021/10/30 08:35:08;;;;;;;;;;;17.90;40.50;;;;;;8233842;28;20283;-48
2021/10/30 08:39:09;;;;;;;;;;;17.90;40.50;;;;;;8233249;28;19918;-49
2021/10/30 08:43:16;;;;;;;;;;;17.90;40.50;;;;;;8233379;28;19926;-49
2021/10/30 08:47:17;;;;;;;;;;;17.90;40.40;;;;;;8233003;28;19945;-49
2021/10/30 08:51:18;;;;;;;;;;;17.90;40.50;;;;;;8233020;28;19957;-48
2021/10/30 08:55:18;;;;;;;;;;;17.90;40.50;;;;;;8233262;28;19918;-48
2021/10/30 08:59:35;;;;;;;;;;;17.90;40.50;;;;;;8232707;28;20368;-48
2021/10/30 09:03:36;;;;;;;;;;;17.90;40.50;;;;;;8233533;28;20339;-48
2021/10/30 09:07:37;;;;;;;;;;;17.90;40.50;;;;;;8233411;28;19942;-48
2021/10/30 09:11:39;;;;;;;;;;;17.90;40.50;;;;;;8232497;28;19914;-48
2021/10/30 09:15:46;;;;;;;;;;;17.90;40.50;;;;;;8234502;28;19981;-47
2021/10/30 09:19:48;;;;;;;;;;;17.90;40.50;;;;;;8239610;28;19960;-49
2021/10/30 09:23:52;;;;;;;;;;;17.90;40.50;;;;;;8238949;28;19910;-51
2021/10/30 09:27:55;;;;;;;;;;;17.90;40.50;;;;;;8239503;28;20375;-48
2021/10/30 09:32:09;;;;;;;;;;;17.80;40.50;;;;;;8238902;28;19914;-49
2021/10/30 09:36:10;;;;;;;;;;;17.90;40.60;;;;;;8238111;28;20095;-48
2021/10/30 09:40:30;;;;;;;;;;;17.90;40.60;;;;;;8238344;28;20064;-47
2021/10/30 09:44:32;;;;;;;;;;;17.90;40.60;;;;;;8238175;28;20012;-48
2021/10/30 09:48:39;;;;;;;;;;;17.90;40.60;;;;;;8238377;28;19917;-46
2021/10/30 09:52:39;;;;;;;;;;;17.90;40.60;;;;;;8238610;28;20351;-48
2021/10/30 09:56:49;;;;;;;;;;;17.90;40.60;;;;;;8237852;28;19914;-49
2021/10/30 10:00:50;;;;;;;;;;;17.90;40.60;;;;;;8238315;28;19933;-49
2021/10/30 10:04:52;;;;;;;;;;;17.90;40.60;;;;;;8237474;28;19910;-50
2021/10/30 10:08:52;;;;;;;;;;;17.90;40.60;;;;;;8237290;28;19921;-47
2021/10/30 10:12:53;;;;;;;;;;;17.90;40.60;;;;;;8237735;28;20308;-49
2021/10/30 10:16:55;;;;;;;;;;;17.90;40.60;;;;;;8237533;28;19918;-48
2021/10/30 10:20:56;;;;;;;;;;;18.00;40.60;;;;;;8237042;28;19929;-48
2021/10/30 10:25:15;;;;;;;;;;;18.00;40.60;;;;;;8237423;28;20356;-48
2021/10/30 10:29:35;;;;;;;;;;;18.00;40.50;;;;;;8204667;28;19914;-49
2021/10/30 10:33:36;;;;;;;;;;;18.00;40.50;;;;;;8233746;28;19961;-49
2021/10/30 10:37:46;;;;;;;;;;;18.00;40.50;;;;;;8237123;28;19922;-49
2021/10/30 10:41:47;;;;;;;;;;;18.10;40.60;;;;;;8236481;28;19965;-50
2021/10/30 10:45:48;;;;;;;;;;;18.10;40.60;;;;;;8237205;28;19921;-49
2021/10/30 10:50:05;;;;;;;;;;;18.10;40.50;;;;;;8236960;28;19962;-48
2021/10/30 10:54:05;;;;;;;;;;;18.10;40.60;;;;;;8236429;28;19918;-49
2021/10/30 10:58:06;;;;;;;;;;;18.00;40.50;;;;;;8236311;28;19945;-51
2021/10/30 11:02:14;;;;;;;;;;;18.10;40.60;;;;;;8236247;28;19914;-49
2021/10/30 11:06:15;;;;;;;;;;;18.10;40.60;;;;;;8236184;28;19914;-49
2021/10/30 11:10:25;;;;;;;;;;;18.10;40.60;;;;;;8236435;28;19914;-48
2021/10/30 11:14:26;;;;;;;;;;;18.10;40.60;;;;;;8235874;28;19936;-51
2021/10/30 11:22:28;;;;;;;;;;;18.00;40.60;;;;;;8236110;28;20017;-48
2021/10/30 11:26:33;;;;;;;;;;;18.00;40.70;;;;;;8235322;28;19929;-47
2021/10/30 11:30:38;;;;;;;;;;;18.00;40.70;;;;;;8235800;28;19910;-48
2021/10/30 11:34:38;;;;;;;;;;;18.00;40.70;;;;;;8235497;28;19949;-49
2021/10/30 11:38:45;;;;;;;;;;;18.00;40.70;;;;;;8234008;28;19928;-52
2021/10/30 11:42:45;;;;;;;;;;;18.00;40.80;;;;;;8235352;28;19914;-51
2021/10/30 11:46:46;;;;;;;;;;;18.00;40.80;;;;;;8235079;28;19918;-49
2021/10/30 11:50:56;;;;;;;;;;;18.00;40.80;;;;;;8234572;28;19953;-49
2021/10/30 11:55:00;;;;;;;;;;;18.00;40.80;;;;;;8235222;28;19937;-48
2021/10/30 11:59:05;;;;;;;;;;;18.00;40.80;;;;;;8234553;28;20008;-48
2021/10/30 12:03:05;;;;;;;;;;;18.00;40.80;;;;;;8233826;28;19918;-48
2021/10/30 12:07:06;;;;;;;;;;;18.00;40.90;;;;;;8234507;28;19911;-48
2021/10/30 12:11:07;;;;;;;;;;;18.00;40.90;;;;;;8234417;28;19914;-48
2021/10/30 12:15:07;;;;;;;;;;;18.00;40.90;;;;;;8233959;28;19914;-48
2021/10/30 12:19:08;;;;;;;;;;;18.00;40.90;;;;;;8233811;28;19929;-47
2021/10/30 12:23:12;;;;;;;;;;;17.90;40.90;;;;;;8234122;28;19993;-47
2021/10/30 12:27:14;;;;;;;;;;;17.90;40.90;;;;;;8233864;28;19977;-48
2021/10/30 12:31:15;;;;;;;;;;;17.90;40.90;;;;;;8233870;28;20375;-48
2021/10/30 12:35:28;;;;;;;;;;;17.90;40.90;;;;;;8233468;28;19914;-47
2021/10/30 12:39:28;;;;;;;;;;;17.90;40.90;;;;;;8233432;28;19986;-49
2021/10/30 12:43:30;;;;;;;;;;;17.90;41.00;;;;;;8233566;28;20136;-47
2021/10/30 12:47:32;;;;;;;;;;;17.90;41.00;;;;;;8233060;28;19938;-48
2021/10/30 12:51:32;;;;;;;;;;;17.90;41.00;;;;;;8233533;28;20283;-48
2021/10/30 12:55:33;;;;;;;;;;;17.90;41.00;;;;;;8233714;28;19918;-48
2021/10/30 12:59:34;;;;;;;;;;;17.90;41.00;;;;;;8232824;28;20272;-48
2021/10/30 13:03:35;;;;;;;;;;;17.90;41.00;;;;;;8232539;28;19914;-47
2021/10/30 13:07:35;;;;;;;;;;;17.90;41.00;;;;;;8233176;28;19980;-46
2021/10/30 13:11:37;;;;;;;;;;;17.90;41.10;;;;;;8232705;28;19997;-47
2021/10/30 13:15:37;;;;;;;;;;;17.90;41.10;;;;;;8233528;28;19989;-48
2021/10/30 13:19:38;;;;;;;;;;;17.90;41.10;;;;;;8232986;28;19929;-47
2021/10/30 13:23:40;;;;;;;;;;;17.90;41.10;;;;;;8232481;28;20074;-47
2021/10/30 13:27:40;;;;;;;;;;;17.90;41.10;;;;;;8232921;28;19918;-47
2021/10/30 13:31:41;;;;;;;;;;;17.90;41.10;;;;;;8232997;28;20342;-48
2021/10/30 13:35:41;;;;;;;;;;;17.90;41.10;;;;;;8232671;28;20033;-47
2021/10/30 13:39:42;;;;;;;;;;;17.90;41.10;;;;;;8232593;28;19957;-48
2021/10/30 13:43:43;;;;;;;;;;;17.90;41.10;;;;;;8232729;28;19914;-47
2021/10/30 13:47:43;;;;;;;;;;;17.90;41.10;;;;;;8232145;28;19921;-47
2021/10/30 13:51:44;;;;;;;;;;;17.90;41.10;;;;;;8232545;28;19928;-48
2021/10/30 13:55:44;;;;;;;;;;;17.90;41.20;;;;;;8232945;28;20005;-48
2021/10/30 13:59:44;;;;;;;;;;;17.90;41.20;;;;;;8231994;28;19922;-47
2021/10/30 14:03:45;;;;;;;;;;;17.90;41.20;;;;;;8236672;28;20072;-47
2021/10/30 14:07:46;;;;;;;;;;;17.90;41.20;;;;;;8237767;28;20363;-47
2021/10/30 14:11:46;;;;;;;;;;;17.90;41.20;;;;;;8237176;28;19925;-46
2021/10/30 14:15:47;;;;;;;;;;;17.90;41.20;;;;;;8237832;28;19918;-47
2021/10/30 14:19:47;;;;;;;;;;;17.90;41.30;;;;;;8237551;28;20383;-47
2021/10/30 14:23:50;;;;;;;;;;;17.90;41.20;;;;;;8237390;28;20000;-47
2021/10/30 14:27:51;;;;;;;;;;;17.90;41.20;;;;;;8237284;28;20407;-47
2021/10/30 14:31:52;;;;;;;;;;;17.90;41.30;;;;;;8237071;28;19921;-47
2021/10/30 14:35:53;;;;;;;;;;;17.90;41.30;;;;;;8236873;28;20440;-46
2021/10/30 14:39:53;;;;;;;;;;;17.90;41.30;;;;;;8236937;28;19990;-48
2021/10/30 14:43:54;;;;;;;;;;;17.90;41.40;;;;;;8236695;28;19911;-49
2021/10/30 14:47:55;;;;;;;;;;;17.90;41.40;;;;;;8236409;28;20291;-47
2021/10/30 14:51:55;;;;;;;;;;;17.90;41.40;;;;;;8236582;28;19910;-46
2021/10/30 14:55:56;;;;;;;;;;;17.90;41.40;;;;;;8236667;28;19952;-47
2021/10/30 14:59:56;;;;;;;;;;;17.90;41.40;;;;;;8235854;28;19922;-47
2021/10/30 15:03:57;;;;;;;;;;;17.90;41.40;;;;;;8236226;28;19914;-47
2021/10/30 15:07:57;;;;;;;;;;;17.90;41.40;;;;;;8235979;28;20398;-47
2021/10/30 15:11:58;;;;;;;;;;;17.80;41.40;;;;;;8235428;28;19999;-48
2021/10/30 15:15:58;;;;;;;;;;;17.80;41.50;;;;;;8235346;28;19997;-49
2021/10/30 15:19:59;;;;;;;;;;;17.80;41.50;;;;;;8235514;28;19969;-48
2021/10/30 15:23:59;;;;;;;;;;;17.80;41.50;;;;;;8235056;28;19914;-48
2021/10/30 15:28:00;;;;;;;;;;;17.80;41.50;;;;;;8235708;28;20363;-51
2021/10/30 15:32:00;;;;;;;;;;;17.80;41.50;;;;;;8235699;28;19974;-48
2021/10/30 15:36:04;;;;;;;;;;;17.80;41.50;;;;;;8234807;28;19953;-47
2021/10/30 15:40:06;;;;;;;;;;;17.80;41.60;;;;;;8235060;28;19984;-49
2021/10/30 15:44:08;;;;;;;;;;;17.80;41.60;;;;;;8234973;28;19949;-46
2021/10/30 15:48:08;;;;;;;;;;;17.80;41.60;;;;;;8234524;28;19960;-47
2021/10/30 15:52:11;;;;;;;;;;;17.80;41.60;;;;;;8234767;28;20338;-47
2021/10/30 15:56:12;;;;;;;;;;;17.80;41.60;;;;;;8234503;28;19929;-47
2021/10/30 16:00:13;;;;;;;;;;;17.80;41.70;;;;;;8234681;28;20375;-47
2021/10/30 16:04:13;;;;;;;;;;;17.80;41.70;;;;;;8234710;28;19968;-47
2021/10/30 16:08:14;;;;;;;;;;;17.80;41.70;;;;;;8233181;28;19914;-47
2021/10/30 16:12:19;;;;;;;;;;;17.80;41.70;;;;;;8234657;28;19942;-47
2021/10/30 16:16:19;;;;;;;;;;;17.80;41.80;;;;;;8234231;28;19923;-47
2021/10/30 16:20:19;;;;;;;;;;;17.80;41.70;;;;;;8233428;28;20016;-48
2021/10/30 16:24:20;;;;;;;;;;;17.80;41.70;;;;;;8233921;28;20355;-47
2021/10/30 16:28:20;;;;;;;;;;;17.80;41.80;;;;;;8233911;28;19991;-47
2021/10/30 16:32:21;;;;;;;;;;;17.80;41.80;;;;;;8233868;28;19911;-47
2021/10/30 16:36:22;;;;;;;;;;;17.80;41.80;;;;;;8233867;28;19914;-47
2021/10/30 16:40:22;;;;;;;;;;;17.80;41.80;;;;;;8233552;28;19922;-46
2021/10/30 16:44:23;;;;;;;;;;;17.80;41.80;;;;;;8233505;28;20284;-46
2021/10/30 16:48:24;;;;;;;;;;;17.80;41.80;;;;;;8233675;28;19918;-46
2021/10/30 16:52:27;;;;;;;;;;;17.80;41.80;;;;;;8233726;28;20426;-46
2021/10/30 16:56:27;;;;;;;;;;;17.80;41.90;;;;;;8232871;28;20352;-46
2021/10/30 17:00:28;;;;;;;;;;;17.80;41.80;;;;;;8233331;28;20008;-46
2021/10/30 17:04:28;;;;;;;;;;;17.80;41.90;;;;;;8233473;28;19922;-47
2021/10/30 17:08:28;;;;;;;;;;;17.70;41.90;;;;;;8233055;28;19915;-48
2021/10/30 17:12:29;;;;;;;;;;;17.80;41.90;;;;;;8233696;28;19910;-47
2021/10/30 17:16:30;;;;;;;;;;;17.80;41.90;;;;;;8233231;28;19918;-48
2021/10/30 17:20:31;;;;;;;;;;;17.80;42.00;;;;;;8232487;28;19930;-50
2021/10/30 17:24:32;;;;;;;;;;;17.70;41.90;;;;;;8232832;28;20295;-47
2021/10/30 17:28:33;;;;;;;;;;;17.80;41.90;;;;;;8232965;28;19977;-48
2021/10/30 17:32:33;;;;;;;;;;;17.80;42.00;;;;;;8232153;28;19997;-48
2021/10/30 17:36:34;;;;;;;;;;;17.70;42.00;;;;;;8234363;28;19914;-48
2021/10/30 17:40:34;;;;;;;;;;;17.80;42.00;;;;;;8238857;28;20394;-48
2021/10/30 17:44:35;;;;;;;;;;;17.70;42.00;;;;;;8238374;28;20383;-48
2021/10/30 17:48:35;;;;;;;;;;;17.70;42.00;;;;;;8238819;28;20434;-47
2021/10/30 17:52:36;;;;;;;;;;;17.70;42.00;;;;;;8238784;28;19940;-49
2021/10/30 17:56:37;;;;;;;;;;;17.70;42.00;;;;;;8237982;28;19989;-47
2021/10/30 18:00:37;;;;;;;;;;;17.70;42.00;;;;;;8238396;28;19921;-48
2021/10/30 18:04:39;;;;;;;;;;;17.80;42.00;;;;;;8238474;28;19937;-49
2021/10/30 18:08:39;;;;;;;;;;;17.70;42.00;;;;;;8237790;28;20334;-47
2021/10/30 18:12:40;;;;;;;;;;;17.70;42.00;;;;;;8238239;28;19921;-49
2021/10/30 18:16:40;;;;;;;;;;;17.70;42.00;;;;;;8238147;28;20398;-46
2021/10/30 18:20:41;;;;;;;;;;;17.70;42.00;;;;;;8237693;28;19984;-48
2021/10/30 18:24:42;;;;;;;;;;;17.70;42.10;;;;;;8237703;28;19964;-47
2021/10/30 18:28:43;;;;;;;;;;;17.70;42.10;;;;;;8237496;28;19914;-49
2021/10/30 18:32:43;;;;;;;;;;;17.70;42.10;;;;;;8237341;28;19917;-49
2021/10/30 18:36:44;;;;;;;;;;;17.70;42.10;;;;;;8236049;28;19914;-47
2021/10/30 18:40:44;;;;;;;;;;;17.70;42.10;;;;;;8237308;28;19922;-47
2021/10/30 18:44:45;;;;;;;;;;;17.70;42.10;;;;;;8236816;28;19925;-47
2021/10/30 18:48:45;;;;;;;;;;;17.70;42.10;;;;;;8236740;28;19956;-49
2021/10/30 18:52:46;;;;;;;;;;;17.70;42.10;;;;;;8237422;28;20001;-48
2021/10/30 18:56:48;;;;;;;;;;;17.70;42.20;;;;;;8236482;28;19992;-47
2021/10/30 19:00:49;;;;;;;;;;;17.70;42.10;;;;;;8236867;28;19922;-49
2021/10/30 19:04:49;;;;;;;;;;;17.70;42.10;;;;;;8235784;28;20001;-49
2021/10/30 19:08:50;;;;;;;;;;;17.70;42.10;;;;;;8236002;28;19944;-49
2021/10/30 19:12:51;;;;;;;;;;;17.70;42.10;;;;;;8236736;28;19969;-49
2021/10/30 19:16:52;;;;;;;;;;;17.70;42.20;;;;;;8235996;28;19921;-51
2021/10/30 19:20:52;;;;;;;;;;;17.70;42.20;;;;;;8235665;28;20273;-47
2021/10/30 19:24:54;;;;;;;;;;;17.70;42.20;;;;;;8235859;28;19961;-49
2021/10/30 19:28:56;;;;;;;;;;;17.70;42.20;;;;;;8235828;28;20347;-48
2021/10/30 19:32:57;;;;;;;;;;;17.70;42.30;;;;;;8235368;28;19941;-47
2021/10/30 19:36:57;;;;;;;;;;;17.70;42.30;;;;;;8235346;28;19914;-48
2021/10/30 19:40:58;;;;;;;;;;;17.70;42.20;;;;;;8235223;28;19945;-48
2021/10/30 19:44:58;;;;;;;;;;;17.70;42.30;;;;;;8234838;28;19914;-48
2021/10/30 19:48:58;;;;;;;;;;;17.70;42.30;;;;;;8235001;28;20398;-49
2021/10/30 19:52:59;;;;;;;;;;;17.70;42.30;;;;;;8235592;28;19961;-47
2021/10/30 19:57:00;;;;;;;;;;;17.70;42.30;;;;;;8234506;28;19997;-48
2021/10/30 20:01:01;;;;;;;;;;;17.70;42.30;;;;;;8234365;28;19926;-47
2021/10/30 20:05:02;;;;;;;;;;;17.70;42.40;;;;;;8234860;28;19918;-47
2021/10/30 20:09:02;;;;;;;;;;;17.70;42.30;;;;;;8234101;28;19942;-48
2021/10/30 20:13:03;;;;;;;;;;;17.70;42.30;;;;;;8234746;28;20044;-48
2021/10/30 20:17:03;;;;;;;;;;;17.70;42.40;;;;;;8234288;28;19917;-48
2021/10/30 20:21:04;;;;;;;;;;;17.70;42.30;;;;;;8233889;28;19969;-47
2021/10/30 20:25:05;;;;;;;;;;;17.70;42.30;;;;;;8234097;28;20360;-47
2021/10/30 20:29:06;;;;;;;;;;;17.70;42.30;;;;;;8234143;28;19916;-46
2021/10/30 20:33:07;;;;;;;;;;;17.70;42.80;;;;;;8233635;28;20338;-48
2021/10/30 20:37:09;;;;;;;;;;;17.70;42.30;;;;;;8233774;28;20398;-49
2021/10/30 20:41:09;;;;;;;;;;;17.70;42.30;;;;;;8233744;28;20009;-46
2021/10/30 20:45:10;;;;;;;;;;;17.70;42.30;;;;;;8233275;28;19914;-49
2021/10/30 20:49:10;;;;;;;;;;;17.70;42.20;;;;;;8233731;28;19941;-47
2021/10/30 20:53:11;;;;;;;;;;;17.70;42.30;;;;;;8233547;28;20024;-46
2021/10/30 20:57:11;;;;;;;;;;;17.70;42.30;;;;;;8233404;28;20287;-47
2021/10/30 21:01:12;;;;;;;;;;;17.70;42.20;;;;;;8233216;28;20287;-47
2021/10/30 21:05:12;;;;;;;;;;;17.70;42.20;;;;;;8233063;28;19914;-47
2021/10/30 21:09:13;;;;;;;;;;;17.70;42.30;;;;;;8233846;28;19917;-49
2021/10/30 21:13:13;;;;;;;;;;;17.70;42.20;;;;;;8238881;28;19914;-48
2021/10/30 21:17:14;;;;;;;;;;;17.70;42.20;;;;;;8239416;28;19914;-48
2021/10/30 21:21:15;;;;;;;;;;;17.70;42.20;;;;;;8239800;28;20442;-48
2021/10/30 21:25:16;;;;;;;;;;;17.70;42.20;;;;;;8239423;28;20383;-48
2021/10/30 21:29:16;;;;;;;;;;;17.70;42.20;;;;;;8239034;28;19920;-48
2021/10/30 21:33:16;;;;;;;;;;;17.70;42.20;;;;;;8239859;28;19921;-49
2021/10/30 21:37:17;;;;;;;;;;;17.70;42.20;;;;;;8238945;28;19918;-48
2021/10/30 21:41:18;;;;;;;;;;;17.70;42.20;;;;;;8238755;28;20381;-47
2021/10/30 21:45:19;;;;;;;;;;;17.70;42.20;;;;;;8239068;28;19914;-49
2021/10/30 21:49:19;;;;;;;;;;;17.70;42.30;;;;;;8238998;28;20322;-49
2021/10/30 21:53:20;;;;;;;;;;;17.70;42.20;;;;;;8238390;28;19997;-49
2021/10/30 21:57:20;;;;;;;;;;;17.60;42.20;;;;;;8238579;28;19918;-49
2021/10/30 22:01:21;;;;;;;;;;;17.60;42.30;;;;;;8237694;28;19933;-47
2021/10/30 22:05:21;;;;;;;;;;;17.60;42.30;;;;;;8237079;28;19914;-48
2021/10/30 22:09:22;;;;;;;;;;;17.60;42.30;;;;;;8238978;28;20384;-52
2021/10/30 22:13:23;;;;;;;;;;;17.60;42.40;;;;;;8238105;28;19953;-48
2021/10/30 22:17:23;;;;;;;;;;;17.60;42.30;;;;;;8237667;28;19914;-49
2021/10/30 22:21:24;;;;;;;;;;;17.60;42.40;;;;;;8238017;28;20387;-47
2021/10/30 22:25:24;;;;;;;;;;;17.60;42.40;;;;;;8237104;28;19914;-48
2021/10/30 22:29:25;;;;;;;;;;;17.60;42.50;;;;;;8237686;28;19910;-47
2021/10/30 22:33:25;;;;;;;;;;;17.60;42.40;;;;;;8237557;28;19914;-47
2021/10/30 22:37:26;;;;;;;;;;;17.60;42.40;;;;;;8237915;28;19914;-47
2021/10/30 22:41:26;;;;;;;;;;;17.60;42.40;;;;;;8236884;28;20291;-48
2021/10/30 22:45:27;;;;;;;;;;;17.60;42.40;;;;;;8237099;28;19914;-48
2021/10/30 22:49:27;;;;;;;;;;;17.60;42.50;;;;;;8237410;28;20330;-47
2021/10/30 22:53:28;;;;;;;;;;;17.60;42.40;;;;;;8236568;28;19965;-49
2021/10/30 22:57:28;;;;;;;;;;;17.60;42.40;;;;;;8237082;28;19914;-48
2021/10/30 23:01:29;;;;;;;;;;;17.60;42.40;;;;;;8236708;28;19929;-48
2021/10/30 23:05:33;;;;;;;;;;;17.60;42.40;;;;;;8236133;28;20371;-49
2021/10/30 23:09:33;;;;;;;;;;;17.60;42.40;;;;;;8236528;28;19910;-48
2021/10/30 23:13:35;;;;;;;;;;;17.60;42.50;;;;;;8236392;28;19968;-48
2021/10/30 23:17:35;;;;;;;;;;;17.60;42.50;;;;;;8235676;28;19921;-48
2021/10/30 23:21:36;;;;;;;;;;;17.60;42.50;;;;;;8236252;28;19922;-49
2021/10/30 23:25:36;;;;;;;;;;;17.60;42.50;;;;;;8235975;28;19921;-47